Time;durP1;ratioP1;P1;durP2;ratioP2;P2;SDS_P1;SDS_P2;PMS_P1;PMS_P2;Temp;Humidity;BMP_temperature;BMP_pressure;BME280_temperature;BME280_humidity;BME280_pressure;Samples;Min_cycle;Max_cycle;Signal;HPM_P1;HPM_P2
2023/03/13 00:01:41;;;;;;;18.55;10.98;;;;;;;-1.51;100.00;93299.03;5069838;28;20044;-71
2023/03/13 00:04:08;;;;;;;16.88;10.98;;;;;;;-1.60;100.00;93289.75;5070014;28;20133;-71
2023/03/13 00:06:37;;;;;;;17.42;10.13;;;;;;;-1.67;100.00;93284.44;5069535;28;20497;-71
2023/03/13 00:09:06;;;;;;;16.27;10.82;;;;;;;-1.61;100.00;93299.00;5069847;28;20462;-71
2023/03/13 00:11:33;;;;;;;22.65;11.85;;;;;;;-1.59;100.00;93308.19;5069402;28;20044;-70
2023/03/13 00:14:03;;;;;;;20.55;11.32;;;;;;;-1.66;100.00;93303.66;5069786;28;20467;-71
2023/03/13 00:16:30;;;;;;;16.33;10.77;;;;;;;-1.71;100.00;93299.94;5069071;28;20040;-70
2023/03/13 00:18:58;;;;;;;18.77;11.40;;;;;;;-1.63;100.00;93308.44;5069539;28;20448;-70
2023/03/13 00:21:27;;;;;;;17.50;10.57;;;;;;;-1.66;100.00;93307.91;5069600;28;20045;-70
2023/03/13 00:23:54;;;;;;;17.35;11.35;;;;;;;-1.76;100.00;93297.84;5069471;28;20048;-70
2023/03/13 00:26:23;;;;;;;16.85;11.50;;;;;;;-1.70;100.00;93316.66;5068852;28;20443;-70
2023/03/13 00:28:50;;;;;;;19.25;12.23;;;;;;;-1.81;100.00;93305.00;5069121;28;20105;-71
2023/03/13 00:31:18;;;;;;;19.48;12.02;;;;;;;-1.81;100.00;93318.34;5068893;28;20424;-71
2023/03/13 00:33:47;;;;;;;25.17;15.93;;;;;;;-1.82;100.00;93321.00;5068974;28;20094;-71
2023/03/13 00:36:17;;;;;;;25.77;15.13;;;;;;;-1.82;100.00;93321.81;5042612;28;20110;-71
2023/03/13 00:38:45;;;;;;;23.92;16.23;;;;;;;-1.82;100.00;93324.31;5068805;28;20044;-71
2023/03/13 00:41:13;;;;;;;25.00;15.30;;;;;;;-1.84;100.00;93316.13;5068439;28;20053;-71
2023/03/13 00:43:41;;;;;;;25.38;16.13;;;;;;;-1.86;100.00;93317.19;5069284;28;20049;-71
2023/03/13 00:46:08;;;;;;;21.55;14.35;;;;;;;-1.83;100.00;93312.66;5068906;28;20121;-71
2023/03/13 00:48:37;;;;;;;24.73;17.00;;;;;;;-1.90;100.00;93314.13;5068918;28;20357;-71
2023/03/13 00:51:04;;;;;;;24.75;15.45;;;;;;;-1.95;100.00;93298.63;5069078;28;20036;-71
2023/03/13 00:53:33;;;;;;;22.88;15.07;;;;;;;-1.91;100.00;93307.47;5068786;28;20110;-71
2023/03/13 00:56:02;;;;;;;23.95;15.18;;;;;;;-1.94;100.00;93308.53;5068797;28;20109;-71
2023/03/13 00:58:31;;;;;;;24.02;14.35;;;;;;;-1.98;100.00;93308.94;5068267;28;20052;-71
2023/03/13 01:00:58;;;;;;;21.15;13.60;;;;;;;-1.99;100.00;93304.84;5068321;28;20052;-71
2023/03/13 01:03:25;;;;;;;20.83;14.02;;;;;;;-1.97;100.00;93305.47;5069014;28;20420;-71
2023/03/13 01:05:58;;;;;;;20.85;13.65;;;;;;;-1.99;100.00;93307.34;5068318;28;20485;-71
2023/03/13 01:08:25;;;;;;;20.90;12.70;;;;;;;-2.06;100.00;93300.31;5068212;28;20118;-72
2023/03/13 01:10:59;;;;;;;17.95;10.93;;;;;;;-2.10;100.00;93296.47;5068453;28;20049;-72
2023/03/13 01:13:26;;;;;;;14.05;9.32;;;;;;;-2.23;100.00;93295.91;5068620;28;20098;-71
2023/03/13 01:15:53;;;;;;;13.38;9.27;;;;;;;-2.31;100.00;93294.81;5068895;28;20487;-72
2023/03/13 01:18:20;;;;;;;13.20;9.52;;;;;;;-2.39;100.00;93294.69;5068609;28;20040;-72
2023/03/13 01:20:46;;;;;;;16.98;10.75;;;;;;;-2.44;100.00;93306.84;5068448;28;20037;-72
2023/03/13 01:23:14;;;;;;;16.13;11.45;;;;;;;-2.46;100.00;93293.63;5068167;28;20044;-72
2023/03/13 01:25:41;;;;;;;15.48;10.68;;;;;;;-2.55;100.00;93292.63;5068595;28;20098;-72
2023/03/13 01:28:09;;;;;;;20.15;12.30;;;;;;;-2.52;100.00;93309.19;5068570;28;20052;-72
2023/03/13 01:30:36;;;;;;;14.98;10.63;;;;;;;-2.53;100.00;93310.94;5068819;28;20127;-72
2023/03/13 01:33:03;;;;;;;16.60;10.65;;;;;;;-2.54;100.00;93314.38;5068494;28;20090;-72
2023/03/13 01:35:29;;;;;;;19.77;11.68;;;;;;;-2.51;100.00;93313.31;5068024;28;20052;-71
2023/03/13 01:37:56;;;;;;;19.92;12.18;;;;;;;-2.55;100.00;93317.78;5068961;28;20040;-71
2023/03/13 01:40:23;;;;;;;25.10;13.57;;;;;;;-2.58;100.00;93315.53;5068711;28;20122;-71
2023/03/13 01:42:51;;;;;;;24.00;14.45;;;;;;;-2.62;100.00;93324.25;5068679;28;20049;-71
2023/03/13 01:45:55;;;;;;;24.92;14.70;;;;;;;-2.63;100.00;93315.94;5068448;28;20116;-72
2023/03/13 01:48:29;;;;;;;27.27;15.93;;;;;;;-2.63;100.00;93331.03;5068678;28;20101;-71
2023/03/13 01:50:59;;;;;;;27.08;16.23;;;;;;;-2.65;100.00;93327.81;5068726;28;20048;-71
2023/03/13 01:53:26;;;;;;;29.42;17.33;;;;;;;-2.70;100.00;93315.63;5068769;28;20114;-71
2023/03/13 01:55:55;;;;;;;33.97;20.80;;;;;;;-2.67;100.00;93321.31;5068021;28;20090;-72
2023/03/13 01:58:22;;;;;;;33.17;19.65;;;;;;;-2.68;100.00;93313.00;5068512;28;20439;-72
2023/03/13 02:00:49;;;;;;;30.20;17.73;;;;;;;-2.65;100.00;93315.25;5067934;28;20048;-72
2023/03/13 02:03:20;;;;;;;24.15;14.77;;;;;;;-2.63;100.00;93315.94;5068231;28;20110;-72
2023/03/13 02:05:50;;;;;;;21.58;12.63;;;;;;;-2.72;100.00;93319.97;5068084;28;20049;-71
2023/03/13 02:08:21;;;;;;;19.90;12.55;;;;;;;-2.73;100.00;93317.59;5068663;28;20045;-71
2023/03/13 02:10:51;;;;;;;17.85;11.73;;;;;;;-2.77;100.00;93314.56;5067948;28;20106;-71
2023/03/13 02:13:20;;;;;;;15.35;9.35;;;;;;;-2.80;100.00;93313.97;5067889;28;20182;-72
2023/03/13 02:15:48;;;;;;;13.13;8.43;;;;;;;-2.89;100.00;93321.38;5068291;28;20558;-71
2023/03/13 02:18:16;;;;;;;13.05;8.32;;;;;;;-2.91;100.00;93324.94;5071838;28;20094;-71
2023/03/13 02:20:43;;;;;;;12.50;7.60;;;;;;;-3.02;100.00;93321.56;5071896;28;20055;-72
2023/03/13 02:23:18;;;;;;;10.95;7.57;;;;;;;-3.08;100.00;93329.59;5071568;28;20057;-71
2023/03/13 02:25:48;;;;;;;13.00;8.23;;;;;;;-3.02;100.00;93333.34;5071781;28;20049;-72
2023/03/13 02:28:19;;;;;;;13.07;7.63;;;;;;;-3.02;100.00;93334.13;5071375;28;20040;-71
2023/03/13 02:30:48;;;;;;;14.90;8.27;;;;;;;-3.01;100.00;93345.75;5059201;28;20049;-71
2023/03/13 02:33:16;;;;;;;13.52;8.25;;;;;;;-3.02;100.00;93348.44;5064902;28;20625;-72
2023/03/13 02:35:44;;;;;;;18.98;10.40;;;;;;;-3.05;100.00;93351.97;5071253;28;20049;-71
2023/03/13 02:38:16;;;;;;;15.95;12.73;;;;;;;-3.12;100.00;93356.69;5071096;28;20497;-71
2023/03/13 02:40:47;;;;;;;16.85;14.25;;;;;;;-3.28;100.00;93346.28;5071670;28;20554;-71
2023/03/13 02:43:18;;;;;;;20.33;15.75;;;;;;;-3.32;100.00;93358.28;5071388;28;20098;-71
2023/03/13 02:46:03;;;;;;;19.33;17.27;;;;;;;-3.46;100.00;93374.44;5071665;28;20040;-71
2023/03/13 02:48:33;;;;;;;17.65;15.80;;;;;;;-3.40;100.00;93375.66;5070917;28;20040;-71
2023/03/13 02:51:02;;;;;;;16.38;13.48;;;;;;;-3.33;100.00;93374.28;5071400;28;20044;-71
2023/03/13 02:53:29;;;;;;;17.45;14.13;;;;;;;-3.27;100.00;93378.81;5071041;28;20049;-71
2023/03/13 02:55:57;;;;;;;21.17;12.82;;;;;;;-3.29;100.00;93382.38;5070887;28;20409;-72
2023/03/13 02:58:24;;;;;;;21.83;12.95;;;;;;;-3.34;100.00;93380.19;5045372;28;20045;-72
2023/03/13 03:00:51;;;;;;;14.63;10.15;;;;;;;-3.33;100.00;93375.97;5070889;28;20045;-72
2023/03/13 03:03:18;;;;;;;15.05;9.70;;;;;;;-3.36;100.00;93372.81;5071136;28;20416;-72
2023/03/13 03:05:45;;;;;;;12.20;9.05;;;;;;;-3.40;100.00;93373.13;5071001;28;20049;-72
2023/03/13 03:08:11;;;;;;;12.20;8.20;;;;;;;-3.40;100.00;93389.03;5070906;28;20048;-72
2023/03/13 03:10:38;;;;;;;13.05;7.88;;;;;;;-3.67;100.00;93360.13;5070800;28;20515;-72
2023/03/13 03:13:06;;;;;;;12.15;7.90;;;;;;;-3.52;100.00;93388.25;5070909;28;20098;-72
2023/03/13 03:15:33;;;;;;;11.35;7.80;;;;;;;-3.54;100.00;93392.59;5070799;28;20098;-72
2023/03/13 03:18:00;;;;;;;13.57;8.68;;;;;;;-3.58;100.00;93398.78;5070500;28;20063;-72
2023/03/13 03:20:26;;;;;;;12.23;8.90;;;;;;;-3.50;100.00;93406.53;5070689;28;20048;-72
2023/03/13 03:22:53;;;;;;;16.40;9.13;;;;;;;-3.53;100.00;93411.78;5070801;28;20052;-72
2023/03/13 03:25:20;;;;;;;15.35;9.15;;;;;;;-3.53;100.00;93418.50;5070443;28;20052;-72
2023/03/13 03:27:46;;;;;;;14.98;9.85;;;;;;;-3.57;100.00;93422.19;5061564;28;20049;-72
2023/03/13 03:30:15;;;;;;;17.35;11.27;;;;;;;-3.67;100.00;93427.91;5065459;28;20048;-72
2023/03/13 03:32:42;;;;;;;25.90;15.20;;;;;;;-3.74;100.00;93433.50;5070410;28;20456;-72
2023/03/13 03:35:09;;;;;;;19.30;12.60;;;;;;;-3.83;100.00;93428.28;5056729;28;20048;-73
2023/03/13 03:37:36;;;;;;;20.65;12.52;;;;;;;-3.81;100.00;93423.13;5070249;28;20122;-72
2023/03/13 03:40:04;;;;;;;19.95;13.38;;;;;;;-3.97;100.00;93381.66;5070223;28;20048;-73
2023/03/13 03:42:31;;;;;;;30.30;17.85;;;;;;;-3.68;100.00;93433.03;5069964;28;20040;-73
2023/03/13 03:44:58;;;;;;;25.25;14.95;;;;;;;-3.60;100.00;93438.28;5070142;28;20413;-73
2023/03/13 03:47:26;;;;;;;18.45;12.25;;;;;;;-3.55;100.00;93436.22;5070275;28;20060;-73
2023/03/13 03:49:52;;;;;;;19.05;12.88;;;;;;;-3.55;100.00;93435.41;5070377;28;20048;-73
2023/03/13 03:52:19;;;;;;;20.90;12.18;;;;;;;-3.53;100.00;93443.63;5070208;28;20044;-73
2023/03/13 03:54:46;;;;;;;17.45;11.25;;;;;;;-3.56;100.00;93439.63;5069653;28;20177;-73
2023/03/13 03:57:12;;;;;;;14.55;10.45;;;;;;;-3.53;100.00;93443.63;5069997;28;20044;-73
2023/03/13 03:59:39;;;;;;;16.92;9.52;;;;;;;-3.59;100.00;93454.94;5069975;28;20106;-73
2023/03/13 04:02:06;;;;;;;14.25;9.70;;;;;;;-3.77;100.00;93432.03;5070170;28;20166;-73
2023/03/13 04:04:34;;;;;;;15.95;9.55;;;;;;;-3.69;100.00;93459.06;5069934;28;20463;-73
2023/03/13 04:07:01;;;;;;;15.10;9.50;;;;;;;-3.71;100.00;93461.69;5069928;28;20052;-73
2023/03/13 04:09:27;;;;;;;16.35;9.88;;;;;;;-3.69;100.00;93467.41;5069158;28;20048;-73
2023/03/13 04:11:54;;;;;;;11.57;8.52;;;;;;;-3.71;100.00;93475.97;5069450;28;20052;-73
2023/03/13 04:14:21;;;;;;;14.60;9.43;;;;;;;-3.81;100.00;93466.59;5069315;28;20458;-73
2023/03/13 04:16:47;;;;;;;13.50;8.73;;;;;;;-3.76;100.00;93478.81;5069721;28;20052;-73
2023/03/13 04:19:14;;;;;;;12.85;9.05;;;;;;;-3.81;100.00;93480.84;5069500;28;20396;-73
2023/03/13 04:21:42;;;;;;;13.85;9.02;;;;;;;-3.85;100.00;93479.50;5069662;28;20044;-73
2023/03/13 04:24:09;;;;;;;12.82;9.25;;;;;;;-3.80;100.00;93478.25;5069056;28;20562;-73
2023/03/13 04:26:36;;;;;;;12.43;8.65;;;;;;;-3.77;100.00;93483.03;5069609;28;20098;-73
2023/03/13 04:29:05;;;;;;;14.40;9.35;;;;;;;-3.80;100.00;93482.47;5069464;28;20048;-73
2023/03/13 04:31:31;;;;;;;15.48;9.93;;;;;;;-3.69;100.00;93487.50;5069233;28;20060;-73
2023/03/13 04:33:58;;;;;;;15.38;10.65;;;;;;;-3.64;100.00;93487.94;5069086;28;20036;-73
2023/03/13 04:36:25;;;;;;;16.70;11.00;;;;;;;-3.67;100.00;93498.19;5069291;28;20106;-73
2023/03/13 04:38:53;;;;;;;13.80;9.60;;;;;;;-3.77;100.00;93502.31;5068856;28;20113;-73
2023/03/13 04:41:19;;;;;;;15.57;9.93;;;;;;;-3.78;100.00;93509.06;5069013;28;20097;-73
2023/03/13 04:43:46;;;;;;;14.10;8.60;;;;;;;-3.76;100.00;93514.75;5042583;28;20102;-73
2023/03/13 04:46:13;;;;;;;12.63;8.32;;;;;;;-3.74;100.00;93522.19;5069590;28;20060;-73
2023/03/13 04:48:39;;;;;;;13.65;7.90;;;;;;;-3.82;100.00;93519.44;5042866;28;20421;-73
2023/03/13 04:51:06;;;;;;;12.23;7.28;;;;;;;-3.88;100.00;93523.22;5068918;28;20044;-73
2023/03/13 04:53:33;;;;;;;9.48;7.20;;;;;;;-3.89;100.00;93516.59;5069183;28;20456;-73
2023/03/13 04:56:01;;;;;;;10.63;6.75;;;;;;;-3.96;100.00;93518.75;5069179;28;20044;-73
2023/03/13 04:58:28;;;;;;;10.73;7.07;;;;;;;-3.93;100.00;93532.78;5068499;28;20625;-73
2023/03/13 05:00:55;;;;;;;13.27;8.02;;;;;;;-3.96;100.00;93528.78;5069031;28;20094;-73
2023/03/13 05:03:22;;;;;;;12.95;7.43;;;;;;;-3.96;100.00;93528.78;5068850;28;20092;-72
2023/03/13 05:05:49;;;;;;;10.35;7.63;;;;;;;-4.06;100.00;93510.31;5068224;28;20094;-73
2023/03/13 05:08:16;;;;;;;10.80;7.20;;;;;;;-4.02;100.00;93509.97;5061232;28;20041;-72
2023/03/13 05:10:43;;;;;;;11.55;8.80;;;;;;;-3.87;100.00;93524.00;5063247;28;20106;-73
2023/03/13 05:13:11;;;;;;;13.27;9.27;;;;;;;-3.92;100.00;93534.38;5068596;28;20041;-73
2023/03/13 05:15:38;;;;;;;12.27;8.75;;;;;;;-3.99;100.00;93525.72;5068808;28;20094;-73
2023/03/13 05:18:04;;;;;;;18.83;10.73;;;;;;;-4.21;100.00;93513.00;5069019;28;20416;-73
2023/03/13 05:20:31;;;;;;;17.17;11.98;;;;;;;-4.19;100.00;93536.31;5068516;28;20110;-73
2023/03/13 05:22:58;;;;;;;19.52;13.43;;;;;;;-4.14;100.00;93532.63;5068345;28;20045;-73
2023/03/13 05:25:25;;;;;;;19.95;12.80;;;;;;;-4.14;100.00;93538.47;5068653;28;20462;-73
2023/03/13 05:27:51;;;;;;;21.08;13.82;;;;;;;-4.09;100.00;93545.63;5068454;28;20090;-73
2023/03/13 05:30:20;;;;;;;17.73;12.85;;;;;;;-3.98;100.00;93539.84;5068601;28;20114;-73
2023/03/13 05:32:46;;;;;;;19.08;12.68;;;;;;;-3.87;100.00;93537.34;5068725;28;20048;-73
2023/03/13 05:35:13;;;;;;;25.35;16.17;;;;;;;-3.75;100.00;93545.69;5068735;28;20845;-72
2023/03/13 05:37:40;;;;;;;29.60;18.80;;;;;;;-3.68;100.00;93551.84;5068795;28;20070;-73
2023/03/13 05:40:09;;;;;;;42.83;23.38;;;;;;;-3.69;100.00;93535.19;5068162;28;20053;-73
2023/03/13 05:42:36;;;;;;;42.95;24.52;;;;;;;-3.46;100.00;93547.72;5068415;28;20492;-73
2023/03/13 05:45:03;;;;;;;84.75;40.22;;;;;;;-3.24;100.00;93561.19;5068314;28;20090;-73
2023/03/13 05:47:31;;;;;;;59.72;32.35;;;;;;;-3.06;100.00;93556.44;5068605;28;20560;-73
2023/03/13 05:49:57;;;;;;;54.78;28.88;;;;;;;-2.93;100.00;93563.06;5068309;28;20044;-73
2023/03/13 05:52:24;;;;;;;53.25;27.48;;;;;;;-2.71;100.00;93557.16;5070351;28;20045;-73
2023/03/13 05:54:51;;;;;;;44.13;24.90;;;;;;;-2.50;100.00;93567.22;5071952;28;20465;-73
2023/03/13 05:57:18;;;;;;;40.70;23.33;;;;;;;-2.33;100.00;93562.59;5071993;28;20550;-73
2023/03/13 05:59:44;;;;;;;31.55;19.08;;;;;;;-2.27;100.00;93557.06;5071889;28;20040;-72
2023/03/13 06:02:11;;;;;;;25.27;17.17;;;;;;;-2.05;100.00;93570.44;5072231;28;20053;-72
2023/03/13 06:04:39;;;;;;;31.02;17.17;;;;;;;-1.89;100.00;93573.31;5072243;28;20044;-72
2023/03/13 06:07:06;;;;;;;31.25;18.58;;;;;;;-1.72;100.00;93567.84;5072195;28;20049;-72
2023/03/13 06:09:33;;;;;;;23.38;13.40;;;;;;;-1.56;100.00;93568.19;5072106;28;20062;-72
2023/03/13 06:11:59;;;;;;;40.08;23.90;;;;;;;-1.39;100.00;93574.31;5072186;28;20048;-72
2023/03/13 06:14:26;;;;;;;27.42;16.50;;;;;;;-1.25;100.00;93568.13;5071394;28;20055;-72
2023/03/13 06:16:54;;;;;;;27.58;14.88;;;;;;;-1.06;100.00;93565.81;5072126;28;20041;-72
2023/03/13 06:19:21;;;;;;;23.30;15.35;;;;;;;-0.90;100.00;93567.81;5071889;28;20040;-72
2023/03/13 06:21:49;;;;;;;13.95;9.77;;;;;;;-0.71;100.00;93580.47;5071990;28;20114;-72
2023/03/13 06:24:16;;;;;;;14.98;8.43;;;;;;;-0.61;100.00;93565.31;5071790;28;20048;-72
2023/03/13 06:26:43;;;;;;;74.40;40.28;;;;;;;-0.34;100.00;93575.69;5071677;28;20040;-72
2023/03/13 06:29:10;;;;;;;45.10;24.00;;;;;;;-0.25;100.00;93563.97;5071614;28;20408;-71
2023/03/13 06:31:36;;;;;;;37.20;20.95;;;;;;;-0.01;100.00;93571.94;5071897;28;20102;-71
2023/03/13 06:34:03;;;;;;;49.25;24.95;;;;;;;0.11;100.00;93572.59;5072001;28;20044;-71
2023/03/13 06:36:30;;;;;;;51.33;32.03;;;;;;;0.30;100.00;93567.59;5054650;28;20098;-71
2023/03/13 06:38:58;;;;;;;50.35;30.88;;;;;;;0.44;100.00;93561.31;5070368;28;20053;-71
2023/03/13 06:41:26;;;;;;;63.58;37.58;;;;;;;0.59;100.00;93554.84;5071213;28;20493;-72
2023/03/13 06:43:53;;;;;;;28.95;16.13;;;;;;;0.70;99.55;93548.03;5071009;28;20551;-72
2023/03/13 06:46:22;;;;;;;32.95;20.83;;;;;;;0.91;99.13;93562.97;5070700;28;20052;-72
2023/03/13 06:48:50;;;;;;;43.60;29.45;;;;;;;1.10;95.90;93561.28;5070776;28;20094;-73
2023/03/13 06:51:18;;;;;;;38.65;26.95;;;;;;;1.22;94.50;93544.13;5070978;28;20048;-73
2023/03/13 06:53:46;;;;;;;34.00;22.08;;;;;;;1.43;94.16;93564.91;5070801;28;20558;-72
2023/03/13 06:56:14;;;;;;;38.28;22.73;;;;;;;1.60;92.88;93567.56;5071251;28;20037;-72
2023/03/13 06:58:41;;;;;;;32.40;19.52;;;;;;;1.76;93.52;93555.97;5070878;28;20049;-72
2023/03/13 07:01:08;;;;;;;35.60;19.52;;;;;;;1.95;91.45;93557.56;5071192;28;20110;-72
2023/03/13 07:03:35;;;;;;;31.45;17.48;;;;;;;1.75;85.72;93567.06;5069482;28;20051;-72
2023/03/13 07:06:03;;;;;;;30.13;17.65;;;;;;;1.89;89.26;93566.53;5070772;28;20049;-72
2023/03/13 07:08:30;;;;;;;32.97;17.80;;;;;;;1.94;86.62;93566.09;5070565;28;20455;-71
2023/03/13 07:10:59;;;;;;;26.70;15.02;;;;;;;1.49;83.62;93563.53;5070965;28;20063;-72
2023/03/13 07:13:28;;;;;;;27.45;15.73;;;;;;;1.30;85.51;93555.13;5070541;28;20391;-71
2023/03/13 07:15:55;;;;;;;20.15;12.43;;;;;;;1.30;83.05;93567.78;5059688;28;20459;-71
2023/03/13 07:18:22;;;;;;;25.45;14.18;;;;;;;1.36;85.63;93565.63;5070366;28;20055;-71
2023/03/13 07:20:54;;;;;;;32.47;19.15;;;;;;;1.12;84.53;93569.50;5070949;28;20102;-71
2023/03/13 07:23:20;;;;;;;19.27;11.10;;;;;;;0.92;80.10;93540.06;5070559;28;20055;-71
2023/03/13 07:25:54;;;;;;;26.15;12.85;;;;;;;1.24;85.58;93558.22;5070480;28;20045;-71
2023/03/13 07:28:20;;;;;;;25.98;11.05;;;;;;;1.15;83.68;93559.09;5070966;28;20081;-71
2023/03/13 07:30:49;;;;;;;21.23;11.77;;;;;;;1.58;89.28;93549.22;5070500;28;20393;-71
2023/03/13 07:33:16;;;;;;;26.60;12.40;;;;;;;1.90;86.34;93552.91;5070220;28;20067;-71
2023/03/13 07:35:49;;;;;;;24.63;11.95;;;;;;;2.26;87.41;93549.50;5070674;28;20450;-71
2023/03/13 07:38:16;;;;;;;23.15;11.15;;;;;;;1.98;79.22;93549.63;5070070;28;20048;-71
2023/03/13 07:40:48;;;;;;;16.15;9.90;;;;;;;1.85;77.73;93550.81;5067205;28;20060;-71
2023/03/13 07:43:15;;;;;;;33.67;15.15;;;;;;;2.00;77.46;93563.75;5070084;28;20408;-71
2023/03/13 07:45:52;;;;;;;24.77;13.77;;;;;;;1.84;78.53;93558.56;5070315;28;20045;-70
2023/03/13 07:48:19;;;;;;;19.00;11.55;;;;;;;1.72;82.80;93553.72;5069616;28;20041;-70
2023/03/13 07:50:46;;;;;;;17.58;9.40;;;;;;;1.82;82.30;93555.41;5052654;28;20055;-71
2023/03/13 07:53:12;;;;;;;19.77;8.88;;;;;;;2.12;81.12;93546.56;5067204;28;20440;-71
2023/03/13 07:55:39;;;;;;;16.83;9.25;;;;;;;2.48;84.47;93540.59;5070092;28;20110;-70
2023/03/13 07:58:06;;;;;;;15.07;8.52;;;;;;;2.80;85.41;93538.34;5069863;28;20074;-70
2023/03/13 08:00:32;;;;;;;17.65;8.88;;;;;;;2.77;73.95;93541.97;5069801;28;20049;-70
2023/03/13 08:03:01;;;;;;;18.95;9.73;;;;;;;2.51;75.30;93537.72;5069822;28;20109;-70
2023/03/13 08:05:27;;;;;;;16.88;8.80;;;;;;;2.37;76.37;93546.69;5069628;28;20488;-70
2023/03/13 08:07:54;;;;;;;19.02;9.30;;;;;;;2.44;74.80;93539.28;5069657;28;20090;-71
2023/03/13 08:10:21;;;;;;;15.00;8.85;;;;;;;2.50;73.12;93541.22;5069530;28;20049;-71
2023/03/13 08:12:47;;;;;;;18.77;8.55;;;;;;;2.34;73.22;93546.22;5068971;28;20398;-70
2023/03/13 08:15:14;;;;;;;15.82;8.55;;;;;;;2.52;73.94;93536.00;5069300;28;20094;-70
2023/03/13 08:17:41;;;;;;;13.98;7.90;;;;;;;3.06;80.40;93537.47;5069386;28;20098;-70
2023/03/13 08:20:10;;;;;;;17.77;9.38;;;;;;;3.54;74.65;93541.97;5069479;28;20048;-70
2023/03/13 08:22:37;;;;;;;13.98;8.75;;;;;;;3.29;69.94;93547.03;5068914;28;20105;-70
2023/03/13 08:25:04;;;;;;;22.35;10.15;;;;;;;3.07;71.26;93542.34;5069171;28;20098;-71
2023/03/13 08:27:31;;;;;;;18.27;9.35;;;;;;;2.98;72.99;93550.13;5069020;28;20102;-70
2023/03/13 08:29:57;;;;;;;17.40;8.70;;;;;;;3.00;74.73;93551.56;5069452;28;20098;-70
2023/03/13 08:32:24;;;;;;;17.60;7.95;;;;;;;3.44;76.37;93549.75;5068914;28;20052;-70
2023/03/13 08:34:51;;;;;;;19.63;9.10;;;;;;;3.63;74.29;93550.38;5068617;28;20558;-71
2023/03/13 08:37:19;;;;;;;16.75;8.60;;;;;;;4.08;76.13;93551.63;5069273;28;20094;-71
2023/03/13 08:39:47;;;;;;;18.90;8.77;;;;;;;4.50;78.86;93541.38;5069204;28;20056;-71
2023/03/13 08:42:14;;;;;;;22.63;8.25;;;;;;;4.78;69.58;93549.38;5068891;28;20136;-71
2023/03/13 08:44:41;;;;;;;19.88;8.65;;;;;;;4.67;68.97;93537.81;5069206;28;20071;-71
2023/03/13 08:47:08;;;;;;;21.15;8.43;;;;;;;4.53;69.61;93530.88;5069506;28;20409;-71
2023/03/13 08:49:37;;;;;;;17.30;7.80;;;;;;;4.66;72.65;93531.16;5068539;28;20500;-72
2023/03/13 08:52:04;;;;;;;16.23;7.72;;;;;;;4.71;67.18;93535.75;5069189;28;20483;-71
2023/03/13 08:54:32;;;;;;;19.50;9.18;;;;;;;5.04;71.50;93530.50;5068523;28;20497;-71
2023/03/13 08:56:59;;;;;;;15.32;7.97;;;;;;;5.37;67.80;93552.44;5069106;28;20049;-71
2023/03/13 08:59:26;;;;;;;14.70;7.63;;;;;;;5.59;65.68;93544.97;5068910;28;20132;-71
2023/03/13 09:01:53;;;;;;;12.60;6.53;;;;;;;5.94;71.09;93542.00;5063820;28;20045;-71
2023/03/13 09:04:20;;;;;;;13.02;6.30;;;;;;;6.23;69.96;93536.19;5068809;28;20045;-72
2023/03/13 09:06:46;;;;;;;12.68;7.38;;;;;;;6.59;68.39;93533.91;5068784;28;20139;-71
2023/03/13 09:09:14;;;;;;;13.32;6.50;;;;;;;6.93;66.50;93541.03;5068483;28;20055;-73
2023/03/13 09:11:42;;;;;;;11.95;6.38;;;;;;;6.34;63.29;93544.38;5067604;28;20052;-73
2023/03/13 09:14:10;;;;;;;7.88;5.18;;;;;;;5.84;65.04;93540.47;5067937;28;20093;-72
2023/03/13 09:16:37;;;;;;;7.80;5.03;;;;;;;6.07;63.85;93544.00;5068349;28;20107;-71
2023/03/13 09:19:04;;;;;;;35.05;19.92;;;;;;;6.01;62.22;93535.25;5068701;28;20060;-70
2023/03/13 09:21:32;;;;;;;8.82;5.55;;;;;;;6.15;60.29;93534.50;5068598;28;20120;-70
2023/03/13 09:24:00;;;;;;;9.75;4.90;;;;;;;5.95;62.64;93534.19;5068058;28;20044;-71
2023/03/13 09:26:27;;;;;;;11.10;5.20;;;;;;;6.36;69.70;93530.50;5068244;28;20098;-71
2023/03/13 09:28:56;;;;;;;8.32;4.78;;;;;;;6.39;62.78;93529.34;5072475;28;20048;-72
2023/03/13 09:31:24;;;;;;;8.82;4.65;;;;;;;6.38;60.89;93533.66;5072716;28;20060;-72
2023/03/13 09:33:51;;;;;;;10.90;4.70;;;;;;;6.81;66.45;93527.13;5072960;28;20048;-72
2023/03/13 09:36:19;;;;;;;9.07;3.92;;;;;;;6.23;57.99;93538.75;5073161;28;20097;-72
2023/03/13 09:38:46;;;;;;;11.63;4.00;;;;;;;6.54;58.46;93539.56;5072165;28;20122;-71
2023/03/13 09:41:22;;;;;;;12.02;4.25;;;;;;;5.93;60.78;93537.88;5072886;28;20059;-71
2023/03/13 09:43:54;;;;;;;10.05;3.78;;;;;;;5.81;60.19;93545.13;5072480;28;20048;-71
2023/03/13 09:46:27;;;;;;;6.78;3.33;;;;;;;6.08;59.18;93528.53;5071951;28;20052;-71
2023/03/13 09:48:58;;;;;;;6.97;3.72;;;;;;;5.77;58.63;93526.84;5071876;28;20528;-71
2023/03/13 09:51:28;;;;;;;9.25;4.38;;;;;;;5.94;59.70;93522.41;5071863;28;20508;-71
2023/03/13 09:54:00;;;;;;;9.25;4.00;;;;;;;5.93;57.93;93510.59;5072644;28;20098;-71
2023/03/13 09:56:31;;;;;;;12.32;4.85;;;;;;;6.36;57.98;93520.28;5072526;28;20048;-71
2023/03/13 09:59:05;;;;;;;11.20;3.63;;;;;;;6.14;56.04;93509.97;5072041;28;20056;-71
2023/03/13 10:01:35;;;;;;;9.55;3.53;;;;;;;6.05;57.48;93500.00;5072368;28;20486;-71
2023/03/13 10:04:09;;;;;;;8.93;4.00;;;;;;;6.26;57.38;93510.31;5072361;28;20044;-71
2023/03/13 10:06:41;;;;;;;9.13;3.78;;;;;;;5.83;57.32;93482.03;5072434;28;20048;-71
2023/03/13 10:09:20;;;;;;;8.77;3.28;;;;;;;6.08;55.54;93512.41;5072285;28;20048;-71
2023/03/13 10:11:52;;;;;;;12.50;4.65;;;;;;;6.20;55.68;93512.78;5071884;28;20049;-71
2023/03/13 10:14:26;;;;;;;10.63;3.97;;;;;;;6.72;61.14;93500.09;5072397;28;20048;-71
2023/03/13 10:16:59;;;;;;;7.82;3.25;;;;;;;7.04;58.03;93498.13;5072460;28;20049;-71
2023/03/13 10:19:32;;;;;;;18.50;6.25;;;;;;;7.04;53.66;93490.44;5072153;28;20094;-71
2023/03/13 10:22:03;;;;;;;8.40;3.88;;;;;;;7.26;52.44;93482.81;5071656;28;20110;-71
2023/03/13 10:24:33;;;;;;;11.00;3.67;;;;;;;6.94;53.46;93483.06;5071907;28;20044;-71
2023/03/13 10:27:00;;;;;;;7.43;3.83;;;;;;;7.11;55.99;93490.50;5071430;28;20102;-71
2023/03/13 10:29:29;;;;;;;10.40;3.92;;;;;;;7.25;54.90;93486.31;5071816;28;20049;-71
2023/03/13 10:31:59;;;;;;;12.73;4.00;;;;;;;7.74;58.59;93470.22;5071504;28;20060;-71
2023/03/13 10:34:27;;;;;;;8.48;3.75;;;;;;;8.08;53.69;93461.97;5071811;28;20501;-71
2023/03/13 10:36:59;;;;;;;9.20;4.60;;;;;;;8.19;52.36;93468.38;5071290;28;20044;-71
2023/03/13 10:39:28;;;;;;;11.75;4.72;;;;;;;8.39;56.01;93451.31;5071393;28;20044;-70
2023/03/13 10:42:08;;;;;;;9.48;4.40;;;;;;;8.33;52.22;93453.88;5066638;28;20448;-69
2023/03/13 10:44:35;;;;;;;12.70;4.38;;;;;;;7.84;53.39;93458.88;5064881;28;20493;-69
2023/03/13 10:47:04;;;;;;;11.70;5.25;;;;;;;8.04;52.20;93459.00;5071800;28;20444;-69
2023/03/13 10:49:32;;;;;;;10.30;5.20;;;;;;;8.28;53.85;93434.75;5071345;28;20435;-69
2023/03/13 10:52:01;;;;;;;9.18;4.68;;;;;;;8.53;54.46;93447.09;5072135;28;20173;-69
2023/03/13 10:54:29;;;;;;;7.97;4.40;;;;;;;8.68;54.81;93453.84;5071816;28;20109;-69
2023/03/13 10:57:20;;;;;;;8.27;4.30;;;;;;;8.69;57.13;93445.19;5071349;28;20044;-69
2023/03/13 10:59:49;;;;;;;6.47;4.28;;;;;;;9.02;55.11;93441.91;5071159;28;20045;-69
2023/03/13 11:02:25;;;;;;;8.98;4.00;;;;;;;9.09;53.11;93439.38;5071323;28;20439;-69
2023/03/13 11:04:53;;;;;;;9.27;4.15;;;;;;;8.37;52.53;93434.56;5046372;28;20049;-69
2023/03/13 11:07:28;;;;;;;8.20;4.53;;;;;;;8.92;54.38;93433.81;5070387;28;20489;-69
2023/03/13 11:09:59;;;;;;;9.40;4.25;;;;;;;9.20;55.68;93425.19;5071055;28;20110;-69
2023/03/13 11:12:27;;;;;;;7.32;4.70;;;;;;;9.60;59.87;93399.59;5066345;28;20048;-70
2023/03/13 11:14:57;;;;;;;9.90;4.53;;;;;;;10.08;57.18;93417.44;5069150;28;20445;-70
2023/03/13 11:17:33;;;;;;;10.52;4.85;;;;;;;10.33;52.78;93424.50;5070425;28;20052;-70
2023/03/13 11:20:08;;;;;;;7.55;4.07;;;;;;;10.41;50.31;93416.56;5070750;28;20509;-69
2023/03/13 11:22:53;;;;;;;12.68;4.55;;;;;;;10.75;55.38;93414.69;5070690;28;20131;-69
2023/03/13 11:25:30;;;;;;;10.88;4.78;;;;;;;10.94;51.66;93413.00;5070711;28;20044;-69
2023/03/13 11:28:09;;;;;;;7.53;3.53;;;;;;;10.82;47.58;93410.31;5070570;28;20501;-69